sensor_id;sensor_type;location;lat;lon;timestamp;P1;durP1;ratioP1;P2;durP2;ratioP2
22230;SDS011;11284;48.086;-1.652;2022-12-05T00:01:18;43.05;;;21.23;;
22230;SDS011;11284;48.086;-1.652;2022-12-05T00:03:46;42.38;;;21.23;;
22230;SDS011;11284;48.086;-1.652;2022-12-05T00:06:12;44.70;;;21.17;;
22230;SDS011;11284;48.086;-1.652;2022-12-05T00:08:38;44.08;;;22.05;;
22230;SDS011;11284;48.086;-1.652;2022-12-05T00:11:09;43.90;;;21.85;;
22230;SDS011;11284;48.086;-1.652;2022-12-05T00:13:35;48.85;;;22.42;;
22230;SDS011;11284;48.086;-1.652;2022-12-05T00:16:01;42.30;;;21.75;;
22230;SDS011;11284;48.086;-1.652;2022-12-05T00:18:31;41.67;;;21.58;;
22230;SDS011;11284;48.086;-1.652;2022-12-05T00:20:57;44.85;;;22.65;;
22230;SDS011;11284;48.086;-1.652;2022-12-05T00:23:23;44.47;;;21.33;;
22230;SDS011;11284;48.086;-1.652;2022-12-05T00:25:49;42.08;;;21.45;;
22230;SDS011;11284;48.086;-1.652;2022-12-05T00:28:15;43.13;;;21.08;;
22230;SDS011;11284;48.086;-1.652;2022-12-05T00:30:41;45.78;;;22.20;;
22230;SDS011;11284;48.086;-1.652;2022-12-05T00:33:07;40.70;;;22.40;;
22230;SDS011;11284;48.086;-1.652;2022-12-05T00:35:33;45.65;;;22.27;;
22230;SDS011;11284;48.086;-1.652;2022-12-05T00:37:59;43.50;;;22.35;;
22230;SDS011;11284;48.086;-1.652;2022-12-05T00:40:25;46.13;;;21.70;;
22230;SDS011;11284;48.086;-1.652;2022-12-05T00:42:51;45.85;;;21.98;;
22230;SDS011;11284;48.086;-1.652;2022-12-05T00:45:17;45.67;;;21.88;;
22230;SDS011;11284;48.086;-1.652;2022-12-05T00:47:43;49.38;;;23.67;;
22230;SDS011;11284;48.086;-1.652;2022-12-05T00:50:09;45.25;;;21.85;;
22230;SDS011;11284;48.086;-1.652;2022-12-05T00:52:35;48.97;;;22.90;;
22230;SDS011;11284;48.086;-1.652;2022-12-05T00:55:01;44.75;;;21.75;;
22230;SDS011;11284;48.086;-1.652;2022-12-05T00:57:27;46.58;;;22.95;;
22230;SDS011;11284;48.086;-1.652;2022-12-05T00:59:53;44.45;;;21.45;;
22230;SDS011;11284;48.086;-1.652;2022-12-05T01:02:19;43.13;;;22.08;;
22230;SDS011;11284;48.086;-1.652;2022-12-05T01:04:45;45.88;;;22.42;;
22230;SDS011;11284;48.086;-1.652;2022-12-05T01:07:11;44.67;;;21.50;;
22230;SDS011;11284;48.086;-1.652;2022-12-05T01:09:37;41.80;;;20.92;;
22230;SDS011;11284;48.086;-1.652;2022-12-05T01:12:03;41.10;;;21.83;;
22230;SDS011;11284;48.086;-1.652;2022-12-05T01:14:29;41.40;;;21.85;;
22230;SDS011;11284;48.086;-1.652;2022-12-05T01:16:55;44.00;;;22.30;;
22230;SDS011;11284;48.086;-1.652;2022-12-05T01:19:23;43.97;;;22.33;;
22230;SDS011;11284;48.086;-1.652;2022-12-05T01:21:49;45.80;;;22.67;;
22230;SDS011;11284;48.086;-1.652;2022-12-05T01:24:16;43.05;;;21.67;;
22230;SDS011;11284;48.086;-1.652;2022-12-05T01:26:42;46.58;;;22.50;;
22230;SDS011;11284;48.086;-1.652;2022-12-05T01:29:09;45.10;;;22.40;;
22230;SDS011;11284;48.086;-1.652;2022-12-05T01:31:35;48.58;;;23.17;;
22230;SDS011;11284;48.086;-1.652;2022-12-05T01:34:03;48.13;;;23.00;;
22230;SDS011;11284;48.086;-1.652;2022-12-05T01:36:29;46.97;;;22.65;;
22230;SDS011;11284;48.086;-1.652;2022-12-05T01:38:57;50.75;;;23.55;;
22230;SDS011;11284;48.086;-1.652;2022-12-05T01:41:25;55.63;;;23.60;;
22230;SDS011;11284;48.086;-1.652;2022-12-05T01:46:31;49.35;;;23.83;;
22230;SDS011;11284;48.086;-1.652;2022-12-05T01:49:07;52.67;;;23.08;;
22230;SDS011;11284;48.086;-1.652;2022-12-05T01:51:35;54.92;;;24.10;;
22230;SDS011;11284;48.086;-1.652;2022-12-05T01:54:02;54.45;;;23.98;;
22230;SDS011;11284;48.086;-1.652;2022-12-05T01:56:29;53.17;;;24.40;;
22230;SDS011;11284;48.086;-1.652;2022-12-05T01:58:56;55.92;;;24.88;;
22230;SDS011;11284;48.086;-1.652;2022-12-05T02:01:23;56.40;;;24.30;;
22230;SDS011;11284;48.086;-1.652;2022-12-05T02:03:49;56.88;;;24.05;;
22230;SDS011;11284;48.086;-1.652;2022-12-05T02:06:16;56.28;;;24.92;;
22230;SDS011;11284;48.086;-1.652;2022-12-05T02:08:43;56.88;;;24.15;;
22230;SDS011;11284;48.086;-1.652;2022-12-05T02:11:09;52.25;;;23.85;;
22230;SDS011;11284;48.086;-1.652;2022-12-05T02:13:54;55.80;;;23.55;;
22230;SDS011;11284;48.086;-1.652;2022-12-05T02:21:49;57.38;;;23.52;;
22230;SDS011;11284;48.086;-1.652;2022-12-05T02:25:08;59.00;;;24.60;;
22230;SDS011;11284;48.086;-1.652;2022-12-05T02:30:00;61.13;;;25.25;;
22230;SDS011;11284;48.086;-1.652;2022-12-05T02:37:57;55.67;;;23.77;;
22230;SDS011;11284;48.086;-1.652;2022-12-05T02:40:30;57.35;;;23.15;;
22230;SDS011;11284;48.086;-1.652;2022-12-05T02:43:02;59.63;;;23.85;;
22230;SDS011;11284;48.086;-1.652;2022-12-05T02:45:30;55.85;;;24.17;;
22230;SDS011;11284;48.086;-1.652;2022-12-05T02:47:58;56.15;;;23.83;;
22230;SDS011;11284;48.086;-1.652;2022-12-05T02:50:30;54.90;;;24.30;;
22230;SDS011;11284;48.086;-1.652;2022-12-05T02:52:59;59.08;;;25.50;;
22230;SDS011;11284;48.086;-1.652;2022-12-05T02:55:27;58.10;;;23.73;;
22230;SDS011;11284;48.086;-1.652;2022-12-05T02:57:54;58.72;;;24.85;;
22230;SDS011;11284;48.086;-1.652;2022-12-05T03:00:22;58.95;;;24.70;;
22230;SDS011;11284;48.086;-1.652;2022-12-05T03:02:50;59.00;;;24.50;;
22230;SDS011;11284;48.086;-1.652;2022-12-05T03:05:28;59.92;;;23.85;;
22230;SDS011;11284;48.086;-1.652;2022-12-05T03:07:57;56.58;;;22.77;;
22230;SDS011;11284;48.086;-1.652;2022-12-05T03:10:25;59.00;;;24.52;;
22230;SDS011;11284;48.086;-1.652;2022-12-05T03:12:55;57.97;;;23.73;;
22230;SDS011;11284;48.086;-1.652;2022-12-05T03:15:28;56.42;;;23.83;;
22230;SDS011;11284;48.086;-1.652;2022-12-05T03:18:03;55.80;;;24.52;;
22230;SDS011;11284;48.086;-1.652;2022-12-05T03:20:34;58.50;;;25.30;;
22230;SDS011;11284;48.086;-1.652;2022-12-05T03:23:04;59.28;;;25.13;;
22230;SDS011;11284;48.086;-1.652;2022-12-05T03:25:49;58.00;;;23.77;;
22230;SDS011;11284;48.086;-1.652;2022-12-05T03:28:18;56.60;;;23.63;;
22230;SDS011;11284;48.086;-1.652;2022-12-05T03:30:48;62.20;;;24.60;;
22230;SDS011;11284;48.086;-1.652;2022-12-05T03:33:17;57.75;;;25.05;;
22230;SDS011;11284;48.086;-1.652;2022-12-05T03:36:01;57.17;;;23.90;;
22230;SDS011;11284;48.086;-1.652;2022-12-05T03:38:34;58.57;;;26.10;;
22230;SDS011;11284;48.086;-1.652;2022-12-05T03:41:07;56.60;;;24.70;;
22230;SDS011;11284;48.086;-1.652;2022-12-05T03:43:54;61.00;;;26.63;;
22230;SDS011;11284;48.086;-1.652;2022-12-05T03:46:26;64.53;;;24.15;;
22230;SDS011;11284;48.086;-1.652;2022-12-05T03:48:56;60.83;;;26.25;;
22230;SDS011;11284;48.086;-1.652;2022-12-05T03:51:27;62.25;;;24.50;;
22230;SDS011;11284;48.086;-1.652;2022-12-05T03:56:24;62.47;;;25.55;;
22230;SDS011;11284;48.086;-1.652;2022-12-05T03:58:55;59.05;;;24.60;;
22230;SDS011;11284;48.086;-1.652;2022-12-05T04:01:21;62.50;;;24.75;;
22230;SDS011;11284;48.086;-1.652;2022-12-05T04:03:49;62.85;;;25.83;;
22230;SDS011;11284;48.086;-1.652;2022-12-05T04:06:28;61.72;;;25.30;;
22230;SDS011;11284;48.086;-1.652;2022-12-05T04:08:59;62.78;;;25.30;;
22230;SDS011;11284;48.086;-1.652;2022-12-05T04:11:27;62.80;;;26.08;;
22230;SDS011;11284;48.086;-1.652;2022-12-05T04:13:59;61.78;;;25.23;;
22230;SDS011;11284;48.086;-1.652;2022-12-05T04:16:28;63.33;;;26.08;;
22230;SDS011;11284;48.086;-1.652;2022-12-05T04:19:23;61.22;;;24.35;;
22230;SDS011;11284;48.086;-1.652;2022-12-05T04:21:51;59.75;;;25.00;;
22230;SDS011;11284;48.086;-1.652;2022-12-05T04:24:19;62.55;;;25.17;;
22230;SDS011;11284;48.086;-1.652;2022-12-05T04:29:53;58.60;;;24.98;;
22230;SDS011;11284;48.086;-1.652;2022-12-05T04:32:20;63.85;;;25.55;;
22230;SDS011;11284;48.086;-1.652;2022-12-05T04:34:49;60.25;;;25.23;;
22230;SDS011;11284;48.086;-1.652;2022-12-05T04:37:20;59.70;;;23.98;;
22230;SDS011;11284;48.086;-1.652;2022-12-05T04:39:58;64.05;;;25.55;;
22230;SDS011;11284;48.086;-1.652;2022-12-05T04:42:26;59.35;;;24.65;;
22230;SDS011;11284;48.086;-1.652;2022-12-05T04:45:01;60.20;;;25.02;;
22230;SDS011;11284;48.086;-1.652;2022-12-05T04:47:29;57.85;;;24.38;;
22230;SDS011;11284;48.086;-1.652;2022-12-05T04:49:56;58.67;;;24.88;;
22230;SDS011;11284;48.086;-1.652;2022-12-05T04:52:23;56.55;;;22.83;;
22230;SDS011;11284;48.086;-1.652;2022-12-05T04:54:53;55.00;;;23.40;;
22230;SDS011;11284;48.086;-1.652;2022-12-05T04:57:23;56.42;;;22.95;;
22230;SDS011;11284;48.086;-1.652;2022-12-05T04:59:50;56.13;;;23.35;;
22230;SDS011;11284;48.086;-1.652;2022-12-05T05:02:17;53.78;;;23.13;;
22230;SDS011;11284;48.086;-1.652;2022-12-05T05:04:46;59.08;;;23.73;;
22230;SDS011;11284;48.086;-1.652;2022-12-05T05:07:13;59.45;;;23.63;;
22230;SDS011;11284;48.086;-1.652;2022-12-05T05:09:39;60.30;;;24.27;;
22230;SDS011;11284;48.086;-1.652;2022-12-05T05:12:06;60.47;;;24.35;;
22230;SDS011;11284;48.086;-1.652;2022-12-05T05:14:32;58.22;;;24.75;;
22230;SDS011;11284;48.086;-1.652;2022-12-05T05:16:58;62.90;;;24.58;;
22230;SDS011;11284;48.086;-1.652;2022-12-05T05:19:25;65.47;;;25.40;;
22230;SDS011;11284;48.086;-1.652;2022-12-05T05:21:51;65.00;;;26.70;;
22230;SDS011;11284;48.086;-1.652;2022-12-05T05:24:17;67.47;;;26.95;;
22230;SDS011;11284;48.086;-1.652;2022-12-05T05:26:43;63.33;;;26.42;;
22230;SDS011;11284;48.086;-1.652;2022-12-05T05:29:10;59.97;;;26.70;;
22230;SDS011;11284;48.086;-1.652;2022-12-05T05:31:37;64.28;;;25.60;;
22230;SDS011;11284;48.086;-1.652;2022-12-05T05:34:04;62.03;;;24.60;;
22230;SDS011;11284;48.086;-1.652;2022-12-05T05:36:30;61.88;;;25.65;;
22230;SDS011;11284;48.086;-1.652;2022-12-05T05:38:57;60.65;;;26.52;;
22230;SDS011;11284;48.086;-1.652;2022-12-05T05:41:26;67.72;;;25.85;;
22230;SDS011;11284;48.086;-1.652;2022-12-05T05:43:52;66.47;;;27.02;;
22230;SDS011;11284;48.086;-1.652;2022-12-05T05:46:20;64.97;;;26.15;;
22230;SDS011;11284;48.086;-1.652;2022-12-05T05:48:46;59.50;;;25.80;;
22230;SDS011;11284;48.086;-1.652;2022-12-05T05:51:13;67.50;;;27.02;;
22230;SDS011;11284;48.086;-1.652;2022-12-05T05:53:40;69.38;;;27.90;;
22230;SDS011;11284;48.086;-1.652;2022-12-05T05:56:10;65.15;;;27.02;;
22230;SDS011;11284;48.086;-1.652;2022-12-05T05:58:36;63.28;;;25.75;;
22230;SDS011;11284;48.086;-1.652;2022-12-05T06:01:12;70.35;;;29.02;;
22230;SDS011;11284;48.086;-1.652;2022-12-05T06:03:38;66.47;;;26.85;;
22230;SDS011;11284;48.086;-1.652;2022-12-05T06:06:06;64.82;;;27.10;;
22230;SDS011;11284;48.086;-1.652;2022-12-05T06:08:33;65.43;;;27.13;;
22230;SDS011;11284;48.086;-1.652;2022-12-05T06:11:03;67.45;;;27.33;;
22230;SDS011;11284;48.086;-1.652;2022-12-05T06:13:29;67.38;;;26.80;;
22230;SDS011;11284;48.086;-1.652;2022-12-05T06:15:55;67.72;;;27.40;;
22230;SDS011;11284;48.086;-1.652;2022-12-05T06:18:21;63.03;;;27.05;;
22230;SDS011;11284;48.086;-1.652;2022-12-05T06:21:05;64.75;;;28.48;;
22230;SDS011;11284;48.086;-1.652;2022-12-05T06:23:35;62.28;;;27.05;;
22230;SDS011;11284;48.086;-1.652;2022-12-05T06:26:01;61.20;;;27.05;;
22230;SDS011;11284;48.086;-1.652;2022-12-05T06:28:28;65.10;;;28.02;;
22230;SDS011;11284;48.086;-1.652;2022-12-05T06:30:53;65.30;;;27.23;;
22230;SDS011;11284;48.086;-1.652;2022-12-05T06:33:20;60.65;;;26.33;;
22230;SDS011;11284;48.086;-1.652;2022-12-05T06:35:46;58.63;;;26.80;;
22230;SDS011;11284;48.086;-1.652;2022-12-05T06:38:12;57.97;;;25.40;;
22230;SDS011;11284;48.086;-1.652;2022-12-05T06:40:39;56.08;;;25.38;;
22230;SDS011;11284;48.086;-1.652;2022-12-05T06:43:05;59.80;;;27.63;;
22230;SDS011;11284;48.086;-1.652;2022-12-05T06:45:31;54.20;;;24.38;;
22230;SDS011;11284;48.086;-1.652;2022-12-05T06:47:57;63.05;;;26.20;;
22230;SDS011;11284;48.086;-1.652;2022-12-05T06:50:23;58.10;;;26.65;;
22230;SDS011;11284;48.086;-1.652;2022-12-05T06:52:50;60.25;;;24.08;;
22230;SDS011;11284;48.086;-1.652;2022-12-05T06:55:16;59.42;;;26.90;;
22230;SDS011;11284;48.086;-1.652;2022-12-05T06:57:42;59.33;;;26.40;;
22230;SDS011;11284;48.086;-1.652;2022-12-05T07:00:08;55.88;;;24.15;;
22230;SDS011;11284;48.086;-1.652;2022-12-05T07:02:53;58.13;;;26.05;;
22230;SDS011;11284;48.086;-1.652;2022-12-05T07:05:19;53.75;;;26.48;;
22230;SDS011;11284;48.086;-1.652;2022-12-05T07:07:45;52.05;;;24.63;;
22230;SDS011;11284;48.086;-1.652;2022-12-05T07:10:11;182.57;;;117.80;;
22230;SDS011;11284;48.086;-1.652;2022-12-05T07:12:37;150.50;;;70.88;;
22230;SDS011;11284;48.086;-1.652;2022-12-05T07:15:03;65.60;;;30.63;;
22230;SDS011;11284;48.086;-1.652;2022-12-05T07:17:29;58.28;;;26.08;;
22230;SDS011;11284;48.086;-1.652;2022-12-05T07:20:00;55.40;;;25.02;;
22230;SDS011;11284;48.086;-1.652;2022-12-05T07:22:26;54.40;;;25.80;;
22230;SDS011;11284;48.086;-1.652;2022-12-05T07:24:52;54.92;;;25.60;;
22230;SDS011;11284;48.086;-1.652;2022-12-05T07:27:18;56.17;;;25.90;;
22230;SDS011;11284;48.086;-1.652;2022-12-05T07:29:44;55.03;;;25.13;;
22230;SDS011;11284;48.086;-1.652;2022-12-05T07:32:10;52.28;;;25.10;;
22230;SDS011;11284;48.086;-1.652;2022-12-05T07:34:36;52.20;;;24.85;;
22230;SDS011;11284;48.086;-1.652;2022-12-05T07:37:03;51.83;;;25.27;;
22230;SDS011;11284;48.086;-1.652;2022-12-05T07:39:29;55.78;;;25.45;;
22230;SDS011;11284;48.086;-1.652;2022-12-05T07:41:55;55.25;;;25.95;;
22230;SDS011;11284;48.086;-1.652;2022-12-05T07:44:21;53.88;;;25.05;;
22230;SDS011;11284;48.086;-1.652;2022-12-05T07:46:47;54.47;;;26.02;;
22230;SDS011;11284;48.086;-1.652;2022-12-05T07:49:13;53.67;;;26.92;;
22230;SDS011;11284;48.086;-1.652;2022-12-05T07:51:39;49.22;;;23.60;;
22230;SDS011;11284;48.086;-1.652;2022-12-05T07:54:05;50.30;;;24.77;;
22230;SDS011;11284;48.086;-1.652;2022-12-05T07:56:32;55.97;;;25.65;;
22230;SDS011;11284;48.086;-1.652;2022-12-05T07:58:58;50.80;;;26.10;;
22230;SDS011;11284;48.086;-1.652;2022-12-05T08:01:25;52.42;;;25.10;;
22230;SDS011;11284;48.086;-1.652;2022-12-05T08:03:52;54.45;;;25.25;;
22230;SDS011;11284;48.086;-1.652;2022-12-05T08:06:19;50.78;;;25.33;;
22230;SDS011;11284;48.086;-1.652;2022-12-05T08:08:45;52.97;;;26.88;;
22230;SDS011;11284;48.086;-1.652;2022-12-05T08:11:19;51.83;;;24.83;;
22230;SDS011;11284;48.086;-1.652;2022-12-05T08:13:46;52.95;;;24.50;;
22230;SDS011;11284;48.086;-1.652;2022-12-05T08:16:13;50.47;;;24.90;;
22230;SDS011;11284;48.086;-1.652;2022-12-05T08:18:39;51.05;;;24.45;;
22230;SDS011;11284;48.086;-1.652;2022-12-05T08:21:10;49.33;;;25.52;;
22230;SDS011;11284;48.086;-1.652;2022-12-05T08:23:36;49.95;;;25.23;;
22230;SDS011;11284;48.086;-1.652;2022-12-05T08:26:07;49.28;;;24.17;;
22230;SDS011;11284;48.086;-1.652;2022-12-05T08:28:34;52.92;;;25.90;;
22230;SDS011;11284;48.086;-1.652;2022-12-05T08:31:04;50.88;;;24.73;;
22230;SDS011;11284;48.086;-1.652;2022-12-05T08:33:30;52.95;;;25.50;;
22230;SDS011;11284;48.086;-1.652;2022-12-05T08:35:56;50.25;;;25.65;;
22230;SDS011;11284;48.086;-1.652;2022-12-05T08:38:24;51.30;;;24.92;;
22230;SDS011;11284;48.086;-1.652;2022-12-05T08:40:50;51.75;;;24.80;;
22230;SDS011;11284;48.086;-1.652;2022-12-05T08:43:16;51.05;;;24.00;;
22230;SDS011;11284;48.086;-1.652;2022-12-05T08:45:48;54.33;;;26.27;;
22230;SDS011;11284;48.086;-1.652;2022-12-05T08:48:14;52.30;;;24.50;;
22230;SDS011;11284;48.086;-1.652;2022-12-05T08:50:40;50.67;;;25.42;;
22230;SDS011;11284;48.086;-1.652;2022-12-05T08:53:06;47.78;;;24.08;;
22230;SDS011;11284;48.086;-1.652;2022-12-05T08:55:33;50.95;;;25.60;;
22230;SDS011;11284;48.086;-1.652;2022-12-05T08:57:59;55.05;;;26.15;;
22230;SDS011;11284;48.086;-1.652;2022-12-05T09:00:25;54.90;;;26.15;;
22230;SDS011;11284;48.086;-1.652;2022-12-05T09:02:51;51.10;;;25.13;;
22230;SDS011;11284;48.086;-1.652;2022-12-05T09:05:17;54.03;;;26.52;;
22230;SDS011;11284;48.086;-1.652;2022-12-05T09:07:43;57.63;;;27.02;;
22230;SDS011;11284;48.086;-1.652;2022-12-05T09:10:09;51.95;;;25.95;;
22230;SDS011;11284;48.086;-1.652;2022-12-05T09:12:38;50.60;;;25.45;;
22230;SDS011;11284;48.086;-1.652;2022-12-05T09:15:04;49.53;;;24.73;;
22230;SDS011;11284;48.086;-1.652;2022-12-05T09:17:31;49.20;;;25.25;;
22230;SDS011;11284;48.086;-1.652;2022-12-05T09:19:57;51.40;;;25.52;;
22230;SDS011;11284;48.086;-1.652;2022-12-05T09:22:23;52.30;;;25.38;;
22230;SDS011;11284;48.086;-1.652;2022-12-05T09:24:49;54.72;;;26.10;;
22230;SDS011;11284;48.086;-1.652;2022-12-05T09:27:15;54.95;;;26.17;;
22230;SDS011;11284;48.086;-1.652;2022-12-05T09:29:41;54.60;;;25.77;;
22230;SDS011;11284;48.086;-1.652;2022-12-05T09:32:07;52.67;;;26.08;;
22230;SDS011;11284;48.086;-1.652;2022-12-05T09:34:33;51.72;;;25.33;;
22230;SDS011;11284;48.086;-1.652;2022-12-05T09:36:59;49.83;;;25.50;;
22230;SDS011;11284;48.086;-1.652;2022-12-05T09:39:26;50.28;;;25.55;;
22230;SDS011;11284;48.086;-1.652;2022-12-05T09:52:36;52.72;;;25.63;;
22230;SDS011;11284;48.086;-1.652;2022-12-05T09:55:05;52.15;;;26.48;;
22230;SDS011;11284;48.086;-1.652;2022-12-05T09:57:36;54.22;;;26.45;;
22230;SDS011;11284;48.086;-1.652;2022-12-05T10:00:03;52.40;;;26.42;;
22230;SDS011;11284;48.086;-1.652;2022-12-05T10:02:34;52.88;;;25.40;;
22230;SDS011;11284;48.086;-1.652;2022-12-05T10:05:06;53.90;;;26.20;;
22230;SDS011;11284;48.086;-1.652;2022-12-05T10:17:39;55.97;;;26.00;;
22230;SDS011;11284;48.086;-1.652;2022-12-05T10:22:57;58.85;;;27.20;;
22230;SDS011;11284;48.086;-1.652;2022-12-05T10:25:21;52.55;;;26.13;;
22230;SDS011;11284;48.086;-1.652;2022-12-05T10:27:51;51.08;;;25.50;;
22230;SDS011;11284;48.086;-1.652;2022-12-05T10:32:48;53.40;;;25.27;;
22230;SDS011;11284;48.086;-1.652;2022-12-05T10:37:42;51.15;;;26.40;;
22230;SDS011;11284;48.086;-1.652;2022-12-05T10:40:10;49.75;;;25.00;;
22230;SDS011;11284;48.086;-1.652;2022-12-05T10:42:37;51.53;;;25.30;;
22230;SDS011;11284;48.086;-1.652;2022-12-05T10:45:12;51.00;;;26.65;;
22230;SDS011;11284;48.086;-1.652;2022-12-05T10:47:39;49.35;;;24.35;;
22230;SDS011;11284;48.086;-1.652;2022-12-05T10:50:06;47.55;;;24.27;;
22230;SDS011;11284;48.086;-1.652;2022-12-05T10:52:35;48.40;;;24.15;;
22230;SDS011;11284;48.086;-1.652;2022-12-05T10:55:02;49.40;;;25.95;;
22230;SDS011;11284;48.086;-1.652;2022-12-05T10:57:28;50.13;;;25.20;;
22230;SDS011;11284;48.086;-1.652;2022-12-05T10:59:55;50.25;;;24.70;;
22230;SDS011;11284;48.086;-1.652;2022-12-05T11:02:30;44.67;;;23.70;;
22230;SDS011;11284;48.086;-1.652;2022-12-05T11:04:57;49.22;;;25.10;;
22230;SDS011;11284;48.086;-1.652;2022-12-05T11:07:25;49.65;;;25.05;;
22230;SDS011;11284;48.086;-1.652;2022-12-05T11:09:55;49.78;;;23.48;;
22230;SDS011;11284;48.086;-1.652;2022-12-05T11:12:22;46.08;;;23.40;;
22230;SDS011;11284;48.086;-1.652;2022-12-05T11:14:53;42.83;;;21.45;;
22230;SDS011;11284;48.086;-1.652;2022-12-05T11:17:30;42.85;;;21.80;;
22230;SDS011;11284;48.086;-1.652;2022-12-05T11:19:56;48.58;;;23.13;;
22230;SDS011;11284;48.086;-1.652;2022-12-05T11:22:35;45.85;;;23.80;;
22230;SDS011;11284;48.086;-1.652;2022-12-05T11:25:01;43.97;;;22.38;;
22230;SDS011;11284;48.086;-1.652;2022-12-05T11:27:47;45.63;;;22.88;;
22230;SDS011;11284;48.086;-1.652;2022-12-05T11:32:43;44.33;;;22.42;;
22230;SDS011;11284;48.086;-1.652;2022-12-05T11:37:57;45.78;;;22.40;;
22230;SDS011;11284;48.086;-1.652;2022-12-05T11:40:38;45.83;;;22.13;;
22230;SDS011;11284;48.086;-1.652;2022-12-05T12:04:15;40.63;;;20.13;;
22230;SDS011;11284;48.086;-1.652;2022-12-05T12:07:02;38.80;;;18.45;;
22230;SDS011;11284;48.086;-1.652;2022-12-05T12:37:42;41.05;;;21.70;;
22230;SDS011;11284;48.086;-1.652;2022-12-05T12:50:21;42.47;;;22.13;;
22230;SDS011;11284;48.086;-1.652;2022-12-05T12:52:52;43.05;;;22.55;;
22230;SDS011;11284;48.086;-1.652;2022-12-05T12:55:35;57.58;;;31.90;;
22230;SDS011;11284;48.086;-1.652;2022-12-05T13:01:00;44.92;;;23.02;;
22230;SDS011;11284;48.086;-1.652;2022-12-05T13:03:36;42.63;;;22.15;;
22230;SDS011;11284;48.086;-1.652;2022-12-05T13:06:09;40.08;;;22.02;;
22230;SDS011;11284;48.086;-1.652;2022-12-05T13:08:40;110.00;;;66.00;;
22230;SDS011;11284;48.086;-1.652;2022-12-05T13:11:09;38.65;;;21.15;;
22230;SDS011;11284;48.086;-1.652;2022-12-05T13:13:45;40.40;;;20.98;;
22230;SDS011;11284;48.086;-1.652;2022-12-05T13:16:15;38.70;;;20.40;;
22230;SDS011;11284;48.086;-1.652;2022-12-05T13:18:45;38.05;;;20.30;;
22230;SDS011;11284;48.086;-1.652;2022-12-05T13:21:11;37.92;;;19.92;;
22230;SDS011;11284;48.086;-1.652;2022-12-05T13:23:46;35.60;;;19.02;;
22230;SDS011;11284;48.086;-1.652;2022-12-05T13:26:13;37.35;;;19.65;;
22230;SDS011;11284;48.086;-1.652;2022-12-05T13:28:45;36.03;;;19.33;;
22230;SDS011;11284;48.086;-1.652;2022-12-05T13:31:12;37.33;;;20.33;;
22230;SDS011;11284;48.086;-1.652;2022-12-05T13:33:44;33.58;;;18.58;;
22230;SDS011;11284;48.086;-1.652;2022-12-05T13:36:11;38.88;;;20.08;;
22230;SDS011;11284;48.086;-1.652;2022-12-05T13:38:57;36.22;;;19.45;;
22230;SDS011;11284;48.086;-1.652;2022-12-05T13:41:46;37.78;;;19.42;;
22230;SDS011;11284;48.086;-1.652;2022-12-05T13:44:39;35.80;;;18.98;;
22230;SDS011;11284;48.086;-1.652;2022-12-05T13:47:07;34.97;;;18.77;;
22230;SDS011;11284;48.086;-1.652;2022-12-05T13:49:40;37.25;;;19.40;;
22230;SDS011;11284;48.086;-1.652;2022-12-05T13:52:15;36.95;;;19.45;;
22230;SDS011;11284;48.086;-1.652;2022-12-05T13:54:45;34.95;;;19.35;;
22230;SDS011;11284;48.086;-1.652;2022-12-05T14:05:51;38.13;;;19.02;;
22230;SDS011;11284;48.086;-1.652;2022-12-05T14:07:53;31.92;;;18.05;;
22230;SDS011;11284;48.086;-1.652;2022-12-05T14:10:20;34.75;;;18.10;;
22230;SDS011;11284;48.086;-1.652;2022-12-05T14:15:23;33.42;;;17.90;;
22230;SDS011;11284;48.086;-1.652;2022-12-05T14:17:49;34.38;;;18.00;;
22230;SDS011;11284;48.086;-1.652;2022-12-05T14:25:40;32.20;;;17.40;;
22230;SDS011;11284;48.086;-1.652;2022-12-05T14:30:44;33.92;;;17.83;;
22230;SDS011;11284;48.086;-1.652;2022-12-05T14:33:14;32.53;;;17.58;;
22230;SDS011;11284;48.086;-1.652;2022-12-05T14:35:43;33.03;;;18.48;;
22230;SDS011;11284;48.086;-1.652;2022-12-05T14:40:45;29.83;;;16.60;;
22230;SDS011;11284;48.086;-1.652;2022-12-05T14:43:18;30.60;;;17.60;;
22230;SDS011;11284;48.086;-1.652;2022-12-05T14:56:02;30.00;;;17.08;;
22230;SDS011;11284;48.086;-1.652;2022-12-05T15:03:39;24.93;;;13.60;;
22230;SDS011;11284;48.086;-1.652;2022-12-05T15:06:10;23.88;;;13.73;;
22230;SDS011;11284;48.086;-1.652;2022-12-05T15:08:48;26.58;;;15.63;;
22230;SDS011;11284;48.086;-1.652;2022-12-05T15:11:16;28.13;;;15.00;;
22230;SDS011;11284;48.086;-1.652;2022-12-05T15:13:53;30.42;;;15.30;;
22230;SDS011;11284;48.086;-1.652;2022-12-05T15:16:21;23.77;;;13.88;;
22230;SDS011;11284;48.086;-1.652;2022-12-05T15:18:50;25.95;;;14.55;;
22230;SDS011;11284;48.086;-1.652;2022-12-05T15:24:20;30.92;;;14.85;;
22230;SDS011;11284;48.086;-1.652;2022-12-05T15:26:47;29.02;;;15.85;;
22230;SDS011;11284;48.086;-1.652;2022-12-05T15:42:16;29.80;;;15.45;;
22230;SDS011;11284;48.086;-1.652;2022-12-05T15:44:42;24.17;;;14.52;;
22230;SDS011;11284;48.086;-1.652;2022-12-05T15:47:16;24.63;;;14.75;;
22230;SDS011;11284;48.086;-1.652;2022-12-05T15:49:44;29.83;;;16.35;;
22230;SDS011;11284;48.086;-1.652;2022-12-05T15:52:24;28.67;;;16.35;;
22230;SDS011;11284;48.086;-1.652;2022-12-05T15:54:54;30.95;;;16.83;;
22230;SDS011;11284;48.086;-1.652;2022-12-05T15:57:24;29.58;;;16.08;;
22230;SDS011;11284;48.086;-1.652;2022-12-05T15:59:54;28.58;;;16.35;;
22230;SDS011;11284;48.086;-1.652;2022-12-05T16:02:23;31.08;;;17.35;;
22230;SDS011;11284;48.086;-1.652;2022-12-05T16:04:51;29.92;;;17.77;;
22230;SDS011;11284;48.086;-1.652;2022-12-05T16:07:18;29.65;;;16.58;;
22230;SDS011;11284;48.086;-1.652;2022-12-05T16:09:45;31.60;;;17.33;;
22230;SDS011;11284;48.086;-1.652;2022-12-05T16:14:41;30.58;;;17.45;;
22230;SDS011;11284;48.086;-1.652;2022-12-05T16:17:08;32.13;;;18.52;;
22230;SDS011;11284;48.086;-1.652;2022-12-05T16:19:35;31.23;;;17.50;;
22230;SDS011;11284;48.086;-1.652;2022-12-05T16:22:16;31.20;;;17.70;;
22230;SDS011;11284;48.086;-1.652;2022-12-05T16:25:01;30.88;;;18.35;;
22230;SDS011;11284;48.086;-1.652;2022-12-05T16:27:33;36.63;;;18.08;;
22230;SDS011;11284;48.086;-1.652;2022-12-05T16:32:33;31.77;;;16.92;;
22230;SDS011;11284;48.086;-1.652;2022-12-05T16:35:00;34.17;;;18.48;;
22230;SDS011;11284;48.086;-1.652;2022-12-05T16:37:26;37.55;;;19.25;;
22230;SDS011;11284;48.086;-1.652;2022-12-05T16:39:53;35.50;;;19.17;;
22230;SDS011;11284;48.086;-1.652;2022-12-05T16:42:26;32.60;;;18.55;;
22230;SDS011;11284;48.086;-1.652;2022-12-05T16:44:59;34.03;;;18.42;;
22230;SDS011;11284;48.086;-1.652;2022-12-05T16:48:00;38.67;;;20.55;;
22230;SDS011;11284;48.086;-1.652;2022-12-05T16:52:46;32.92;;;18.80;;
22230;SDS011;11284;48.086;-1.652;2022-12-05T16:55:12;36.25;;;19.52;;
22230;SDS011;11284;48.086;-1.652;2022-12-05T16:57:38;37.15;;;19.67;;
22230;SDS011;11284;48.086;-1.652;2022-12-05T17:00:05;37.55;;;21.17;;
22230;SDS011;11284;48.086;-1.652;2022-12-05T17:02:31;37.63;;;19.77;;
22230;SDS011;11284;48.086;-1.652;2022-12-05T17:04:58;35.50;;;20.80;;
22230;SDS011;11284;48.086;-1.652;2022-12-05T17:07:27;34.17;;;20.38;;
22230;SDS011;11284;48.086;-1.652;2022-12-05T17:09:53;35.45;;;20.38;;
22230;SDS011;11284;48.086;-1.652;2022-12-05T17:12:21;39.05;;;21.27;;
22230;SDS011;11284;48.086;-1.652;2022-12-05T17:14:49;35.28;;;20.27;;
22230;SDS011;11284;48.086;-1.652;2022-12-05T17:17:15;37.70;;;21.08;;